createdAt,value
2023-04-20T00:01:14.526Z,22.73
2023-04-20T00:03:41.847Z,22.83
2023-04-20T00:06:09.312Z,28.30
2023-04-20T00:08:36.244Z,20.05
2023-04-20T00:11:03.419Z,23.08
2023-04-20T00:13:30.412Z,23.60
2023-04-20T00:15:57.580Z,23.40
2023-04-20T00:18:24.465Z,23.63
2023-04-20T00:20:51.633Z,22.58
2023-04-20T00:23:18.474Z,34.10
2023-04-20T00:25:45.709Z,34.95
2023-04-20T00:28:12.578Z,37.63
2023-04-20T00:30:39.720Z,23.95
2023-04-20T00:33:06.620Z,25.30
2023-04-20T00:35:33.964Z,29.58
2023-04-20T00:38:00.825Z,20.98
2023-04-20T00:40:27.911Z,23.00
2023-04-20T00:42:54.905Z,23.38
2023-04-20T00:45:22.353Z,22.20
2023-04-20T00:47:49.327Z,24.90
2023-04-20T00:50:17.819Z,16.98
2023-04-20T00:52:45.715Z,18.80
2023-04-20T00:55:12.919Z,21.98
2023-04-20T00:57:41.733Z,18.80
2023-04-20T01:00:10.681Z,26.05
2023-04-20T01:02:37.834Z,16.27
2023-04-20T01:05:05.648Z,19.60
2023-04-20T01:07:32.652Z,19.10
2023-04-20T01:09:59.974Z,17.02
2023-04-20T01:12:26.890Z,20.40
2023-04-20T01:14:54.020Z,16.85
2023-04-20T01:17:21.351Z,19.55
2023-04-20T01:19:49.259Z,20.70
2023-04-20T01:22:21.236Z,19.27
2023-04-20T01:24:48.988Z,20.77
2023-04-20T01:27:17.193Z,19.35
2023-04-20T01:29:45.288Z,21.80
2023-04-20T01:32:12.445Z,24.15
2023-04-20T01:34:39.637Z,20.17
2023-04-20T01:37:08.361Z,21.95
2023-04-20T01:39:37.601Z,18.50
2023-04-20T01:42:05.832Z,19.02
2023-04-20T01:44:32.961Z,19.50
2023-04-20T01:47:00.009Z,18.55
2023-04-20T01:49:27.352Z,21.95
2023-04-20T01:51:54.262Z,19.00
2023-04-20T01:54:21.603Z,19.73
2023-04-20T01:56:48.466Z,17.80
2023-04-20T01:59:15.818Z,20.35
2023-04-20T02:01:42.996Z,18.83
2023-04-20T02:04:10.335Z,16.85
2023-04-20T02:06:37.292Z,19.30
2023-04-20T02:09:04.660Z,20.05
2023-04-20T02:11:31.504Z,18.73
2023-04-20T02:13:58.668Z,18.02
2023-04-20T02:16:25.677Z,18.45
2023-04-20T02:18:52.872Z,17.83
2023-04-20T02:21:19.683Z,18.02
2023-04-20T02:23:46.863Z,20.40
2023-04-20T02:26:13.805Z,20.05
2023-04-20T02:28:41.060Z,21.45
2023-04-20T02:31:07.927Z,18.08
2023-04-20T02:33:35.275Z,18.88
2023-04-20T02:36:02.176Z,21.38
2023-04-20T02:38:29.324Z,18.90
2023-04-20T02:40:56.249Z,21.20
2023-04-20T02:43:23.499Z,19.05
2023-04-20T02:45:50.534Z,33.88
2023-04-20T02:48:17.861Z,26.00
2023-04-20T02:50:44.803Z,19.17
2023-04-20T02:53:11.950Z,16.63
2023-04-20T02:55:38.820Z,17.20
2023-04-20T02:58:06.101Z,19.50
2023-04-20T03:00:32.944Z,18.15
2023-04-20T03:03:00.295Z,23.35
2023-04-20T03:05:27.284Z,22.80
2023-04-20T03:07:54.449Z,16.30
2023-04-20T03:10:21.343Z,21.33
2023-04-20T03:12:48.625Z,18.60
2023-04-20T03:15:17.129Z,17.27
2023-04-20T03:17:44.357Z,21.27
2023-04-20T03:20:12.008Z,15.23
2023-04-20T03:22:39.101Z,20.13
2023-04-20T03:25:06.570Z,18.02
2023-04-20T03:27:33.736Z,19.60
2023-04-20T03:30:00.841Z,21.75
2023-04-20T03:32:28.022Z,18.50
2023-04-20T03:34:54.864Z,21.60
2023-04-20T03:37:22.068Z,25.92
2023-04-20T03:39:48.935Z,18.98
2023-04-20T03:42:16.330Z,20.63
2023-04-20T03:44:43.187Z,23.38
2023-04-20T03:47:10.987Z,32.42
2023-04-20T03:49:37.926Z,24.83
2023-04-20T03:52:05.715Z,24.20
2023-04-20T03:54:32.576Z,27.70
2023-04-20T03:56:59.762Z,23.15
2023-04-20T03:59:26.670Z,23.77
2023-04-20T04:01:54.286Z,25.08
2023-04-20T04:04:21.426Z,21.92
2023-04-20T04:06:48.962Z,29.48
2023-04-20T04:09:15.940Z,20.52
2023-04-20T04:11:43.459Z,22.90
2023-04-20T04:14:10.663Z,20.25
2023-04-20T04:16:38.009Z,17.70
2023-04-20T04:19:04.831Z,22.52
2023-04-20T04:21:31.960Z,25.52
2023-04-20T04:23:59.092Z,21.08
2023-04-20T04:26:26.798Z,20.70
2023-04-20T04:28:53.670Z,19.40
2023-04-20T04:31:21.759Z,17.45
2023-04-20T04:33:49.741Z,15.88
2023-04-20T04:36:17.735Z,16.57
2023-04-20T04:38:44.874Z,19.40
2023-04-20T04:41:12.845Z,18.58
2023-04-20T04:43:41.139Z,22.85
2023-04-20T04:46:13.274Z,30.45
2023-04-20T04:48:43.489Z,15.60
2023-04-20T04:51:10.804Z,20.23
2023-04-20T04:53:38.099Z,18.58
2023-04-20T04:56:06.994Z,19.52
2023-04-20T04:58:33.927Z,18.65
2023-04-20T05:01:01.146Z,18.27
2023-04-20T05:03:28.111Z,16.92
2023-04-20T05:05:55.463Z,19.55
2023-04-20T05:08:24.476Z,17.30
2023-04-20T05:10:51.672Z,18.13
2023-04-20T05:13:18.564Z,12.57
2023-04-20T05:15:45.694Z,22.02
2023-04-20T05:18:12.500Z,16.02
2023-04-20T05:20:39.664Z,17.85
2023-04-20T05:23:06.476Z,20.63
2023-04-20T05:25:33.821Z,20.25
2023-04-20T05:28:00.867Z,17.35
2023-04-20T05:30:28.036Z,21.95
2023-04-20T05:32:55.019Z,13.80
2023-04-20T05:35:22.525Z,19.65
2023-04-20T05:37:49.430Z,14.15
2023-04-20T05:40:16.630Z,17.10
2023-04-20T05:42:43.595Z,16.17
2023-04-20T05:45:11.484Z,16.95
2023-04-20T05:47:38.458Z,19.15
2023-04-20T05:50:06.566Z,18.50
2023-04-20T05:52:33.529Z,17.40
2023-04-20T05:55:00.666Z,15.95
2023-04-20T05:57:27.613Z,16.23
2023-04-20T05:59:56.171Z,16.33
2023-04-20T06:02:23.384Z,18.70
2023-04-20T06:04:50.842Z,16.08
2023-04-20T06:07:30.073Z,17.23
2023-04-20T06:09:57.575Z,16.55
2023-04-20T06:12:26.262Z,17.02
2023-04-20T06:14:53.916Z,16.13
2023-04-20T06:17:20.751Z,12.27
2023-04-20T06:19:48.002Z,16.38
2023-04-20T06:22:15.919Z,14.65
2023-04-20T06:24:43.246Z,18.70
2023-04-20T06:27:10.750Z,15.98
2023-04-20T06:29:38.259Z,20.73
2023-04-20T06:32:05.385Z,21.58
2023-04-20T06:34:32.720Z,15.23
2023-04-20T06:36:59.589Z,15.68
2023-04-20T06:39:26.757Z,13.93
2023-04-20T06:41:53.597Z,16.55
2023-04-20T06:44:20.847Z,18.55
2023-04-20T06:46:47.811Z,15.80
2023-04-20T06:49:15.122Z,15.35
2023-04-20T06:51:43.208Z,15.93
2023-04-20T06:54:10.454Z,14.52
2023-04-20T06:56:37.319Z,17.33
2023-04-20T06:59:04.523Z,16.90
2023-04-20T07:01:31.430Z,16.73
2023-04-20T07:03:58.903Z,15.93
2023-04-20T07:06:27.589Z,14.90
2023-04-20T07:08:54.677Z,14.68
2023-04-20T07:11:21.564Z,15.98
2023-04-20T07:13:48.781Z,17.33
2023-04-20T07:16:16.673Z,35.97
2023-04-20T07:18:43.995Z,15.02
2023-04-20T07:21:10.898Z,17.23
2023-04-20T07:23:38.078Z,21.30
2023-04-20T07:26:05.098Z,25.10
2023-04-20T07:28:32.948Z,23.70
2023-04-20T07:31:00.008Z,34.40
2023-04-20T07:33:27.934Z,28.00
2023-04-20T07:35:54.768Z,26.38
2023-04-20T07:38:21.911Z,22.20
2023-04-20T07:40:48.807Z,18.73
2023-04-20T07:43:15.956Z,32.78
2023-04-20T07:45:42.987Z,17.42
2023-04-20T07:48:12.539Z,19.58
2023-04-20T07:50:39.944Z,22.15
2023-04-20T07:53:07.298Z,16.50
2023-04-20T07:55:34.251Z,15.32
2023-04-20T07:58:01.459Z,15.07
2023-04-20T08:00:28.497Z,18.10
2023-04-20T08:02:55.919Z,13.85
2023-04-20T08:05:24.568Z,15.55
2023-04-20T08:07:52.158Z,14.40
2023-04-20T08:10:19.123Z,10.80
2023-04-20T08:12:47.167Z,14.38
2023-04-20T08:15:14.627Z,19.70
2023-04-20T08:17:41.915Z,15.50
2023-04-20T08:20:09.286Z,12.93
2023-04-20T08:22:36.560Z,18.08
2023-04-20T08:25:03.708Z,19.58
2023-04-20T08:27:30.757Z,13.98
2023-04-20T08:29:58.120Z,15.10
2023-04-20T08:32:27.066Z,11.35
2023-04-20T08:34:55.350Z,11.80
2023-04-20T08:37:22.432Z,15.03
2023-04-20T08:39:49.642Z,11.82
2023-04-20T08:42:17.118Z,20.38
2023-04-20T08:44:44.313Z,16.80
2023-04-20T08:47:12.136Z,15.10
2023-04-20T08:49:40.404Z,16.67
2023-04-20T08:52:10.839Z,11.50
2023-04-20T08:54:45.942Z,9.32
2023-04-20T08:57:16.545Z,7.53
2023-04-20T08:59:43.721Z,15.32
2023-04-20T09:02:12.083Z,12.95
2023-04-20T09:04:40.943Z,8.85
2023-04-20T09:07:17.905Z,17.67
2023-04-20T09:09:58.043Z,8.18
2023-04-20T09:12:25.518Z,19.67
2023-04-20T09:14:53.583Z,14.23
2023-04-20T09:17:37.251Z,9.98
2023-04-20T09:20:08.624Z,7.57
2023-04-20T09:22:37.644Z,11.23
2023-04-20T09:25:15.477Z,14.85
2023-04-20T09:27:42.337Z,21.65
2023-04-20T09:30:09.969Z,16.67
2023-04-20T09:32:36.852Z,13.23
2023-04-20T09:35:04.229Z,9.85
2023-04-20T09:37:31.157Z,8.77
2023-04-20T09:40:00.924Z,6.75
2023-04-20T09:42:28.936Z,8.48
2023-04-20T09:44:57.588Z,10.95
2023-04-20T09:47:26.891Z,7.18
2023-04-20T09:49:54.902Z,12.27
2023-04-20T09:52:24.257Z,9.25
2023-04-20T09:54:51.796Z,12.43
2023-04-20T09:57:19.490Z,8.90
2023-04-20T09:59:47.405Z,8.68
2023-04-20T10:02:15.126Z,15.43
2023-04-20T10:04:55.867Z,7.32
2023-04-20T10:07:27.323Z,6.38
2023-04-20T10:10:15.827Z,25.67
2023-04-20T10:12:51.626Z,8.40
2023-04-20T10:15:19.428Z,7.85
2023-04-20T10:17:46.461Z,7.97
2023-04-20T10:20:27.123Z,8.30
2023-04-20T10:22:55.641Z,9.25
2023-04-20T10:25:26.897Z,7.47
2023-04-20T10:27:53.878Z,6.97
2023-04-20T10:30:21.933Z,8.25
2023-04-20T10:32:48.911Z,8.15
2023-04-20T10:35:16.357Z,7.85
2023-04-20T10:37:51.073Z,8.38
2023-04-20T10:40:27.220Z,6.53
2023-04-20T10:42:54.130Z,16.05
2023-04-20T10:45:22.051Z,9.35
2023-04-20T10:47:49.078Z,12.52
2023-04-20T10:50:16.662Z,12.18
2023-04-20T10:52:44.818Z,14.45
2023-04-20T10:55:28.283Z,7.25
2023-04-20T10:57:55.167Z,5.40
2023-04-20T11:00:25.498Z,8.60
2023-04-20T11:02:58.270Z,6.10
2023-04-20T11:05:27.923Z,8.32
2023-04-20T11:07:59.033Z,6.40
2023-04-20T11:10:39.038Z,5.97
2023-04-20T11:13:06.086Z,6.55
2023-04-20T11:15:34.157Z,6.50
2023-04-20T11:18:12.171Z,7.20
2023-04-20T11:20:54.070Z,7.93
2023-04-20T11:23:22.673Z,5.63
2023-04-20T11:25:53.960Z,8.88
2023-04-20T11:28:21.033Z,8.95
2023-04-20T11:30:49.727Z,13.63
2023-04-20T11:33:28.225Z,5.43
2023-04-20T11:35:56.791Z,9.35
2023-04-20T11:38:34.271Z,12.57
2023-04-20T11:41:08.013Z,9.07
2023-04-20T11:43:36.055Z,11.13
2023-04-20T11:46:03.652Z,4.82
2023-04-20T11:48:31.707Z,4.85
2023-04-20T11:50:58.951Z,9.53
2023-04-20T11:53:25.888Z,10.77
2023-04-20T11:55:53.010Z,10.30
2023-04-20T11:58:19.847Z,5.50
2023-04-20T12:00:47.019Z,7.32
2023-04-20T12:03:14.034Z,9.70
2023-04-20T12:05:43.345Z,6.65
2023-04-20T12:08:10.360Z,8.35
2023-04-20T12:10:37.588Z,6.93
2023-04-20T12:13:04.519Z,9.43
2023-04-20T12:15:31.886Z,12.40
2023-04-20T12:17:58.906Z,8.35
2023-04-20T12:20:26.307Z,16.23
2023-04-20T12:22:53.250Z,10.77
2023-04-20T12:25:20.719Z,9.63
2023-04-20T12:27:49.436Z,6.75
2023-04-20T12:30:17.228Z,6.95
2023-04-20T12:32:44.092Z,10.10
2023-04-20T12:35:11.294Z,13.95
2023-04-20T12:37:38.106Z,6.32
2023-04-20T12:40:06.627Z,13.25
2023-04-20T12:42:33.627Z,13.27
2023-04-20T12:45:00.765Z,26.95
2023-04-20T12:47:27.655Z,9.32
2023-04-20T12:49:55.187Z,13.20
2023-04-20T12:52:22.100Z,15.70
2023-04-20T12:54:50.004Z,10.38
2023-04-20T12:57:17.174Z,14.18
2023-04-20T12:59:44.305Z,14.40
2023-04-20T13:02:12.149Z,24.90
2023-04-20T13:04:39.520Z,9.03
2023-04-20T13:07:07.173Z,13.20
2023-04-20T13:09:34.439Z,16.55
2023-04-20T13:12:01.397Z,14.15
2023-04-20T13:14:29.722Z,16.30
2023-04-20T13:16:56.727Z,13.00
2023-04-20T13:19:23.953Z,13.45
2023-04-20T13:21:50.901Z,17.55
2023-04-20T13:24:18.336Z,11.95
2023-04-20T13:26:45.690Z,9.82
2023-04-20T13:29:13.077Z,16.05
2023-04-20T13:31:40.752Z,21.38
2023-04-20T13:34:08.003Z,16.38
2023-04-20T13:36:34.908Z,14.10
2023-04-20T13:39:02.137Z,14.23
2023-04-20T13:41:29.039Z,13.57
2023-04-20T13:43:57.949Z,18.88
2023-04-20T13:46:25.021Z,16.83
2023-04-20T13:48:52.269Z,19.15
2023-04-20T13:51:19.677Z,13.15
2023-04-20T13:53:50.140Z,23.60
2023-04-20T13:56:17.188Z,17.23
2023-04-20T13:58:44.740Z,14.73
2023-04-20T14:01:13.452Z,11.20
2023-04-20T14:03:42.017Z,21.25
2023-04-20T14:06:09.086Z,18.03
2023-04-20T14:08:36.376Z,24.08
2023-04-20T14:11:03.230Z,17.55
2023-04-20T14:13:30.507Z,13.75
2023-04-20T14:15:57.747Z,23.67
2023-04-20T14:18:24.922Z,24.23
2023-04-20T14:20:52.490Z,24.73
2023-04-20T14:23:19.791Z,17.67
2023-04-20T14:25:46.649Z,14.45
2023-04-20T14:28:16.786Z,21.23
2023-04-20T14:30:45.372Z,20.98
2023-04-20T14:33:13.015Z,23.40
2023-04-20T14:35:40.493Z,20.90
2023-04-20T14:38:07.676Z,18.70
2023-04-20T14:40:34.864Z,19.17
2023-04-20T14:43:02.024Z,13.40
2023-04-20T14:45:28.973Z,33.08
2023-04-20T14:47:57.145Z,16.55
2023-04-20T14:50:28.911Z,21.17
2023-04-20T14:52:56.324Z,32.80
2023-04-20T14:55:25.806Z,17.73
2023-04-20T14:57:56.502Z,20.38
2023-04-20T15:00:24.812Z,28.52
2023-04-20T15:02:53.617Z,14.38
2023-04-20T15:05:20.688Z,20.95
2023-04-20T15:07:50.777Z,12.70
2023-04-20T15:10:19.497Z,16.75
2023-04-20T15:12:48.049Z,18.05
2023-04-20T15:15:17.106Z,23.87
2023-04-20T15:20:15.228Z,31.25
2023-04-20T15:22:42.562Z,30.08
2023-04-20T15:25:09.804Z,25.85
2023-04-20T15:27:37.017Z,19.90
2023-04-20T15:30:05.174Z,428.88
2023-04-20T15:32:35.585Z,26.10
2023-04-20T15:35:02.725Z,20.88
2023-04-20T15:37:30.083Z,21.20
2023-04-20T15:39:57.091Z,21.20
2023-04-20T15:42:24.240Z,29.25
2023-04-20T15:44:51.138Z,19.90
2023-04-20T15:47:18.306Z,12.90
2023-04-20T15:49:45.371Z,17.38
2023-04-20T15:52:12.501Z,17.30
2023-04-20T15:54:39.848Z,17.67
2023-04-20T15:57:07.085Z,22.80
2023-04-20T15:59:33.948Z,22.27
2023-04-20T16:02:01.199Z,15.90
2023-04-20T16:04:28.118Z,23.33
2023-04-20T16:06:55.430Z,16.52
2023-04-20T16:09:23.796Z,18.02
2023-04-20T16:11:51.204Z,19.98
2023-04-20T16:14:18.455Z,26.50
2023-04-20T16:16:46.029Z,32.53
2023-04-20T16:19:15.960Z,45.53
2023-04-20T16:21:43.186Z,45.60
2023-04-20T16:24:10.078Z,31.17
2023-04-20T16:26:38.960Z,28.63
2023-04-20T16:29:06.483Z,27.85
2023-04-20T16:31:37.486Z,16.23
2023-04-20T16:34:04.469Z,26.23
2023-04-20T16:36:32.164Z,34.17
2023-04-20T16:38:59.038Z,39.15
2023-04-20T16:41:27.235Z,31.65
2023-04-20T16:43:54.196Z,32.65
2023-04-20T16:46:22.392Z,33.33
2023-04-20T16:48:50.815Z,27.63
2023-04-20T16:51:18.025Z,46.67
2023-04-20T16:53:45.455Z,42.05
2023-04-20T16:56:12.827Z,45.78
2023-04-20T16:58:39.641Z,31.90
2023-04-20T17:01:07.995Z,70.07
2023-04-20T17:03:35.196Z,67.40
2023-04-20T17:06:07.515Z,63.10
2023-04-20T17:08:34.762Z,75.15
2023-04-20T17:11:02.088Z,67.78
2023-04-20T17:13:28.939Z,67.57
2023-04-20T17:15:56.407Z,50.92
2023-04-20T17:18:23.367Z,115.20
2023-04-20T17:20:50.722Z,86.32
2023-04-20T17:23:18.207Z,72.15
2023-04-20T17:25:47.388Z,66.65
2023-04-20T17:28:14.757Z,69.72
2023-04-20T17:30:41.991Z,70.07
2023-04-20T17:33:12.193Z,58.53
2023-04-20T17:35:39.579Z,93.00
2023-04-20T17:38:06.639Z,90.82
2023-04-20T17:40:34.047Z,81.20
2023-04-20T17:43:02.241Z,135.43
2023-04-20T17:45:29.410Z,186.25
2023-04-20T17:47:56.528Z,206.32
2023-04-20T17:50:24.444Z,130.23
2023-04-20T17:52:51.926Z,117.82
2023-04-20T17:55:19.072Z,101.88
2023-04-20T17:57:45.945Z,75.70
2023-04-20T18:00:13.732Z,79.10
2023-04-20T18:02:41.171Z,120.00
2023-04-20T18:05:08.812Z,66.57
2023-04-20T18:07:35.908Z,72.22
2023-04-20T18:10:04.267Z,73.18
2023-04-20T18:12:31.163Z,83.93
2023-04-20T18:14:58.267Z,66.15
2023-04-20T18:17:25.332Z,65.18
2023-04-20T18:19:52.507Z,52.55
2023-04-20T18:22:19.500Z,59.22
2023-04-20T18:24:46.692Z,53.50
2023-04-20T18:27:13.610Z,60.08
2023-04-20T18:29:40.744Z,76.72
2023-04-20T18:32:08.147Z,152.20
2023-04-20T18:34:35.511Z,55.53
2023-04-20T18:37:02.412Z,71.05
2023-04-20T18:39:30.027Z,54.22
2023-04-20T18:41:56.912Z,161.38
2023-04-20T18:44:24.217Z,123.95
2023-04-20T18:46:51.182Z,94.53
2023-04-20T18:49:18.319Z,304.85
2023-04-20T18:51:45.143Z,175.05
2023-04-20T18:54:12.267Z,82.85
2023-04-20T18:56:39.680Z,60.65
2023-04-20T18:59:08.609Z,108.32
2023-04-20T19:01:40.532Z,91.85
2023-04-20T19:04:08.611Z,75.60
2023-04-20T19:06:36.000Z,68.75
2023-04-20T19:09:03.346Z,103.50
2023-04-20T19:11:31.681Z,132.10
2023-04-20T19:13:58.864Z,79.50
2023-04-20T19:16:25.764Z,228.85
2023-04-20T19:18:53.695Z,296.73
2023-04-20T19:21:22.114Z,268.85
2023-04-20T19:23:49.422Z,316.70
2023-04-20T19:26:17.905Z,308.02
2023-04-20T19:28:45.996Z,272.40
2023-04-20T19:31:13.431Z,121.20
2023-04-20T19:33:41.089Z,93.88
2023-04-20T19:36:08.382Z,73.13
2023-04-20T19:38:37.576Z,58.83
2023-04-20T19:41:06.168Z,51.15
2023-04-20T19:43:33.623Z,42.20
2023-04-20T19:46:01.390Z,29.85
2023-04-20T19:48:28.704Z,28.10
2023-04-20T19:50:59.277Z,28.42
2023-04-20T19:53:27.143Z,17.83
2023-04-20T19:55:53.974Z,24.40
2023-04-20T19:58:21.234Z,11.13
2023-04-20T20:00:48.063Z,17.20
2023-04-20T20:03:16.278Z,16.38
2023-04-20T20:05:44.581Z,11.68
2023-04-20T20:08:11.822Z,11.50
2023-04-20T20:10:38.809Z,12.88
2023-04-20T20:13:06.153Z,9.82
2023-04-20T20:15:33.226Z,14.68
2023-04-20T20:18:00.715Z,12.65
2023-04-20T20:20:30.478Z,9.90
2023-04-20T20:22:58.129Z,15.90
2023-04-20T20:25:25.642Z,9.60
2023-04-20T20:27:53.173Z,12.40
2023-04-20T20:30:20.033Z,11.57
2023-04-20T20:32:47.253Z,11.88
2023-04-20T20:35:14.186Z,18.10
2023-04-20T20:37:41.674Z,11.60
2023-04-20T20:40:14.866Z,9.00
2023-04-20T20:42:43.065Z,21.27
2023-04-20T20:45:12.539Z,15.55
2023-04-20T20:47:41.231Z,16.67
2023-04-20T20:50:09.259Z,14.27
2023-04-20T20:52:36.571Z,11.43
2023-04-20T20:55:04.364Z,14.95
2023-04-20T20:57:31.612Z,12.85
2023-04-20T20:59:58.500Z,10.05
2023-04-20T21:02:25.826Z,10.88
2023-04-20T21:04:53.628Z,10.13
2023-04-20T21:07:20.810Z,17.27
2023-04-20T21:09:47.677Z,9.68
2023-04-20T21:12:14.874Z,11.98
2023-04-20T21:14:41.707Z,12.32
2023-04-20T21:17:09.055Z,11.52
2023-04-20T21:19:35.952Z,14.27
2023-04-20T21:22:03.250Z,14.05
2023-04-20T21:24:30.077Z,8.13
2023-04-20T21:26:58.161Z,8.75
2023-04-20T21:29:25.051Z,13.05
2023-04-20T21:31:52.271Z,9.35
2023-04-20T21:34:19.223Z,11.95
2023-04-20T21:36:46.451Z,16.05
2023-04-20T21:39:13.326Z,6.40
2023-04-20T21:41:40.592Z,15.73
2023-04-20T21:44:07.539Z,12.77
2023-04-20T21:46:36.073Z,12.90
2023-04-20T21:49:03.078Z,11.55
2023-04-20T21:51:30.192Z,8.27
2023-04-20T21:53:57.005Z,10.35
2023-04-20T21:56:24.165Z,14.90
2023-04-20T21:58:51.055Z,15.93
2023-04-20T22:01:18.301Z,16.13
2023-04-20T22:03:45.401Z,16.90
2023-04-20T22:06:12.712Z,9.45
2023-04-20T22:08:39.916Z,13.55
2023-04-20T22:11:07.465Z,13.93
2023-04-20T22:13:34.903Z,15.88
2023-04-20T22:16:02.206Z,15.73
2023-04-20T22:18:29.213Z,14.18
2023-04-20T22:20:56.331Z,10.93
2023-04-20T22:23:23.208Z,8.98
2023-04-20T22:25:50.431Z,14.82
2023-04-20T22:28:17.354Z,12.15
2023-04-20T22:30:44.519Z,17.63
2023-04-20T22:33:11.405Z,15.45
2023-04-20T22:35:38.565Z,14.65
2023-04-20T22:38:05.752Z,13.32
2023-04-20T22:40:32.962Z,15.20
2023-04-20T22:42:59.801Z,17.45
2023-04-20T22:45:26.950Z,17.27
2023-04-20T22:47:53.871Z,15.32
2023-04-20T22:50:21.109Z,13.68
2023-04-20T22:52:49.580Z,13.50
2023-04-20T22:55:16.920Z,16.48
2023-04-20T22:57:43.763Z,12.15
2023-04-20T23:00:13.646Z,18.05
2023-04-20T23:02:41.547Z,17.33
2023-04-20T23:05:09.753Z,17.42
2023-04-20T23:07:37.573Z,11.57
2023-04-20T23:10:06.162Z,12.35
2023-04-20T23:12:33.410Z,12.53
2023-04-20T23:15:01.441Z,12.38
2023-04-20T23:17:28.835Z,13.13
2023-04-20T23:19:56.615Z,16.55
2023-04-20T23:22:23.638Z,16.05
2023-04-20T23:24:50.810Z,10.85
2023-04-20T23:27:17.800Z,16.30
2023-04-20T23:29:45.218Z,13.48
2023-04-20T23:32:12.118Z,17.67
2023-04-20T23:34:39.348Z,10.98
2023-04-20T23:37:06.201Z,14.48
2023-04-20T23:39:37.240Z,14.48
2023-04-20T23:42:06.862Z,11.98
2023-04-20T23:44:34.016Z,15.63
2023-04-20T23:47:00.939Z,18.17
2023-04-20T23:49:28.161Z,18.83
2023-04-20T23:51:55.019Z,19.88
2023-04-20T23:54:22.271Z,19.20
2023-04-20T23:56:49.236Z,14.93
2023-04-20T23:59:16.886Z,15.57
